sensor_id;sensor_type;location;lat;lon;timestamp;pressure;altitude;pressure_sealevel;temperature;humidity
80733;BME280;70130;44.534;18.678;2023-12-29T00:01:29;99660.31;;;0.46;100.00
80733;BME280;70130;44.534;18.678;2023-12-29T00:03:55;99656.06;;;0.44;100.00
80733;BME280;70130;44.534;18.678;2023-12-29T00:06:21;99666.88;;;0.43;100.00
80733;BME280;70130;44.534;18.678;2023-12-29T00:08:46;99651.50;;;0.40;100.00
80733;BME280;70130;44.534;18.678;2023-12-29T00:11:24;99652.00;;;0.37;100.00
80733;BME280;70130;44.534;18.678;2023-12-29T00:13:49;99648.25;;;0.33;100.00
80733;BME280;70130;44.534;18.678;2023-12-29T00:16:18;99648.97;;;0.28;100.00
80733;BME280;70130;44.534;18.678;2023-12-29T00:18:43;99643.34;;;0.25;100.00
80733;BME280;70130;44.534;18.678;2023-12-29T00:21:09;99652.88;;;0.26;100.00
80733;BME280;70130;44.534;18.678;2023-12-29T00:23:37;99642.31;;;0.26;100.00
80733;BME280;70130;44.534;18.678;2023-12-29T00:26:03;99616.50;;;0.11;100.00
80733;BME280;70130;44.534;18.678;2023-12-29T00:28:29;99638.88;;;0.25;100.00
80733;BME280;70130;44.534;18.678;2023-12-29T00:31:00;99623.94;;;0.14;100.00
80733;BME280;70130;44.534;18.678;2023-12-29T00:33:29;99634.91;;;0.23;100.00
80733;BME280;70130;44.534;18.678;2023-12-29T00:35:55;99627.94;;;0.17;100.00
80733;BME280;70130;44.534;18.678;2023-12-29T00:38:20;99629.16;;;0.09;100.00
80733;BME280;70130;44.534;18.678;2023-12-29T00:40:49;99638.56;;;0.05;100.00
80733;BME280;70130;44.534;18.678;2023-12-29T00:43:14;99635.28;;;-0.02;100.00
80733;BME280;70130;44.534;18.678;2023-12-29T00:45:43;99645.53;;;0.11;100.00
80733;BME280;70130;44.534;18.678;2023-12-29T00:48:08;99632.97;;;0.02;100.00
80733;BME280;70130;44.534;18.678;2023-12-29T00:50:47;99638.09;;;0.08;100.00
80733;BME280;70130;44.534;18.678;2023-12-29T00:53:15;99640.50;;;0.10;100.00
80733;BME280;70130;44.534;18.678;2023-12-29T00:55:41;99642.56;;;0.08;100.00
80733;BME280;70130;44.534;18.678;2023-12-29T00:58:10;99632.88;;;-0.04;100.00
80733;BME280;70130;44.534;18.678;2023-12-29T01:00:48;99651.22;;;0.03;100.00
80733;BME280;70130;44.534;18.678;2023-12-29T01:03:16;99635.53;;;-0.04;100.00
80733;BME280;70130;44.534;18.678;2023-12-29T01:05:42;99656.78;;;0.07;100.00
80733;BME280;70130;44.534;18.678;2023-12-29T01:08:11;99645.22;;;0.08;100.00
80733;BME280;70130;44.534;18.678;2023-12-29T01:10:36;99649.47;;;0.09;100.00
80733;BME280;70130;44.534;18.678;2023-12-29T01:13:05;99651.28;;;0.08;100.00
80733;BME280;70130;44.534;18.678;2023-12-29T01:15:34;99642.56;;;0.08;100.00
80733;BME280;70130;44.534;18.678;2023-12-29T01:18:00;99638.09;;;0.08;100.00
80733;BME280;70130;44.534;18.678;2023-12-29T01:20:29;99645.44;;;0.06;100.00
80733;BME280;70130;44.534;18.678;2023-12-29T01:22:54;99645.94;;;0.03;100.00
80733;BME280;70130;44.534;18.678;2023-12-29T01:25:23;99636.97;;;0.04;100.00
80733;BME280;70130;44.534;18.678;2023-12-29T01:27:52;99636.00;;;-0.07;100.00
80733;BME280;70130;44.534;18.678;2023-12-29T01:30:24;99628.63;;;-0.05;100.00
80733;BME280;70130;44.534;18.678;2023-12-29T01:32:52;99626.56;;;-0.03;100.00
80733;BME280;70130;44.534;18.678;2023-12-29T01:35:30;99620.25;;;-0.02;100.00
80733;BME280;70130;44.534;18.678;2023-12-29T01:37:59;99625.78;;;-0.03;100.00
80733;BME280;70130;44.534;18.678;2023-12-29T01:40:29;99622.41;;;0.02;100.00
80733;BME280;70130;44.534;18.678;2023-12-29T01:42:57;99606.91;;;-0.12;100.00
80733;BME280;70130;44.534;18.678;2023-12-29T01:45:29;99616.75;;;-0.07;100.00
80733;BME280;70130;44.534;18.678;2023-12-29T01:47:57;99615.38;;;-0.10;100.00
80733;BME280;70130;44.534;18.678;2023-12-29T01:50:26;99615.13;;;-0.08;100.00
80733;BME280;70130;44.534;18.678;2023-12-29T01:52:52;99608.09;;;-0.19;100.00
80733;BME280;70130;44.534;18.678;2023-12-29T01:55:20;99617.59;;;-0.18;100.00
80733;BME280;70130;44.534;18.678;2023-12-29T01:58:03;99587.88;;;-0.30;100.00
80733;BME280;70130;44.534;18.678;2023-12-29T02:00:33;99617.06;;;-0.20;100.00
80733;BME280;70130;44.534;18.678;2023-12-29T02:03:02;99617.47;;;-0.12;100.00
80733;BME280;70130;44.534;18.678;2023-12-29T02:05:39;99616.34;;;-0.16;100.00
80733;BME280;70130;44.534;18.678;2023-12-29T02:08:07;99589.13;;;-0.33;100.00
80733;BME280;70130;44.534;18.678;2023-12-29T02:10:35;99597.94;;;-0.27;100.00
80733;BME280;70130;44.534;18.678;2023-12-29T02:13:05;99592.47;;;-0.37;100.00
80733;BME280;70130;44.534;18.678;2023-12-29T02:15:36;99604.41;;;-0.35;100.00
80733;BME280;70130;44.534;18.678;2023-12-29T02:18:22;99601.78;;;-0.35;100.00
80733;BME280;70130;44.534;18.678;2023-12-29T02:20:52;99580.00;;;-0.42;100.00
80733;BME280;70130;44.534;18.678;2023-12-29T02:23:17;99586.91;;;-0.41;100.00
80733;BME280;70130;44.534;18.678;2023-12-29T02:25:46;99594.31;;;-0.38;100.00
80733;BME280;70130;44.534;18.678;2023-12-29T02:28:20;99595.34;;;-0.39;100.00
80733;BME280;70130;44.534;18.678;2023-12-29T02:31:00;99600.41;;;-0.37;100.00
80733;BME280;70130;44.534;18.678;2023-12-29T02:33:28;99604.41;;;-0.35;100.00
80733;BME280;70130;44.534;18.678;2023-12-29T02:35:59;99601.91;;;-0.41;100.00
80733;BME280;70130;44.534;18.678;2023-12-29T02:38:25;99598.06;;;-0.34;100.00
80733;BME280;70130;44.534;18.678;2023-12-29T02:40:56;99589.53;;;-0.41;100.00
80733;BME280;70130;44.534;18.678;2023-12-29T02:43:25;99592.16;;;-0.41;100.00
80733;BME280;70130;44.534;18.678;2023-12-29T02:45:54;99600.97;;;-0.35;100.00
80733;BME280;70130;44.534;18.678;2023-12-29T02:48:22;99593.44;;;-0.44;100.00
80733;BME280;70130;44.534;18.678;2023-12-29T02:51:00;99585.44;;;-0.49;100.00
80733;BME280;70130;44.534;18.678;2023-12-29T02:53:29;99566.97;;;-0.65;100.00
80733;BME280;70130;44.534;18.678;2023-12-29T02:55:58;99586.81;;;-0.46;100.00
80733;BME280;70130;44.534;18.678;2023-12-29T02:58:26;99590.16;;;-0.51;100.00
80733;BME280;70130;44.534;18.678;2023-12-29T03:00:56;99595.34;;;-0.39;100.00
80733;BME280;70130;44.534;18.678;2023-12-29T03:03:43;99585.88;;;-0.40;100.00
80733;BME280;70130;44.534;18.678;2023-12-29T03:06:15;99574.97;;;-0.60;100.00
80733;BME280;70130;44.534;18.678;2023-12-29T03:08:44;99583.06;;;-0.50;100.00
80733;BME280;70130;44.534;18.678;2023-12-29T03:11:13;99569.78;;;-0.55;100.00
80733;BME280;70130;44.534;18.678;2023-12-29T03:13:41;99587.44;;;-0.39;100.00
80733;BME280;70130;44.534;18.678;2023-12-29T03:16:07;99576.34;;;-0.41;100.00
80733;BME280;70130;44.534;18.678;2023-12-29T03:18:35;99569.78;;;-0.38;100.00
80733;BME280;70130;44.534;18.678;2023-12-29T03:21:05;99582.66;;;-0.42;100.00
80733;BME280;70130;44.534;18.678;2023-12-29T03:23:31;99578.72;;;-0.39;100.00
80733;BME280;70130;44.534;18.678;2023-12-29T03:25:59;99554.41;;;-0.58;100.00
80733;BME280;70130;44.534;18.678;2023-12-29T03:28:28;99576.38;;;-0.69;100.00
80733;BME280;70130;44.534;18.678;2023-12-29T03:30:56;99596.13;;;-0.55;100.00
80733;BME280;70130;44.534;18.678;2023-12-29T03:33:40;99583.31;;;-0.63;100.00
80733;BME280;70130;44.534;18.678;2023-12-29T03:36:09;99606.53;;;-0.49;100.00
80733;BME280;70130;44.534;18.678;2023-12-29T03:38:37;99613.22;;;-0.58;100.00
80733;BME280;70130;44.534;18.678;2023-12-29T03:41:25;99611.56;;;-0.47;100.00
80733;BME280;70130;44.534;18.678;2023-12-29T03:43:50;99598.88;;;-0.50;100.00
80733;BME280;70130;44.534;18.678;2023-12-29T03:46:20;99618.84;;;-0.37;100.00
80733;BME280;70130;44.534;18.678;2023-12-29T03:51:49;99611.47;;;-0.52;100.00
80733;BME280;70130;44.534;18.678;2023-12-29T03:54:14;99629.94;;;-0.52;100.00
80733;BME280;70130;44.534;18.678;2023-12-29T03:56:40;99612.91;;;-0.61;100.00
80733;BME280;70130;44.534;18.678;2023-12-29T03:59:09;99620.59;;;-0.43;100.00
80733;BME280;70130;44.534;18.678;2023-12-29T04:01:47;99619.25;;;-0.46;100.00
80733;BME280;70130;44.534;18.678;2023-12-29T04:04:28;99621.78;;;-0.51;100.00
80733;BME280;70130;44.534;18.678;2023-12-29T04:06:57;99635.19;;;-0.52;100.00
80733;BME280;70130;44.534;18.678;2023-12-29T04:09:28;99612.22;;;-0.68;100.00
80733;BME280;70130;44.534;18.678;2023-12-29T04:11:56;99620.31;;;-0.58;100.00
80733;BME280;70130;44.534;18.678;2023-12-29T04:14:25;99639.03;;;-0.60;100.00
80733;BME280;70130;44.534;18.678;2023-12-29T04:16:51;99643.59;;;-0.55;100.00
80733;BME280;70130;44.534;18.678;2023-12-29T04:19:19;99655.38;;;-0.58;100.00
80733;BME280;70130;44.534;18.678;2023-12-29T04:22:07;99674.25;;;-0.49;100.00
80733;BME280;70130;44.534;18.678;2023-12-29T04:24:39;99662.69;;;-0.48;100.00
80733;BME280;70130;44.534;18.678;2023-12-29T04:27:08;99660.81;;;-0.64;100.00
80733;BME280;70130;44.534;18.678;2023-12-29T04:29:36;99639.16;;;-0.66;100.00
80733;BME280;70130;44.534;18.678;2023-12-29T04:32:39;99651.69;;;-0.45;100.00
80733;BME280;70130;44.534;18.678;2023-12-29T04:35:07;99650.63;;;-0.44;100.00
80733;BME280;70130;44.534;18.678;2023-12-29T04:37:50;99650.81;;;-0.34;100.00
80733;BME280;70130;44.534;18.678;2023-12-29T04:40:19;99645.81;;;-0.35;100.00
80733;BME280;70130;44.534;18.678;2023-12-29T04:43:13;99654.13;;;-0.27;100.00
80733;BME280;70130;44.534;18.678;2023-12-29T04:45:38;99636.41;;;-0.43;100.00
80733;BME280;70130;44.534;18.678;2023-12-29T04:48:07;99652.19;;;-0.31;100.00
80733;BME280;70130;44.534;18.678;2023-12-29T04:50:32;99667.31;;;-0.27;100.00
80733;BME280;70130;44.534;18.678;2023-12-29T04:52:58;99657.25;;;-0.30;100.00
80733;BME280;70130;44.534;18.678;2023-12-29T04:59:03;99654.31;;;-0.17;100.00
80733;BME280;70130;44.534;18.678;2023-12-29T05:01:35;99660.34;;;-0.33;100.00
80733;BME280;70130;44.534;18.678;2023-12-29T05:04:06;99655.94;;;-0.27;100.00
80733;BME280;70130;44.534;18.678;2023-12-29T05:06:35;99662.59;;;-0.25;100.00
80733;BME280;70130;44.534;18.678;2023-12-29T05:09:00;99657.88;;;-0.23;100.00
80733;BME280;70130;44.534;18.678;2023-12-29T05:11:30;99660.75;;;-0.24;100.00
80733;BME280;70130;44.534;18.678;2023-12-29T05:14:01;99658.81;;;-0.29;100.00
80733;BME280;70130;44.534;18.678;2023-12-29T05:16:29;99642.34;;;-0.36;100.00
80733;BME280;70130;44.534;18.678;2023-12-29T05:19:07;99652.09;;;-0.36;100.00
80733;BME280;70130;44.534;18.678;2023-12-29T05:21:35;99653.22;;;-0.32;100.00
80733;BME280;70130;44.534;18.678;2023-12-29T05:24:01;99663.91;;;-0.39;100.00
80733;BME280;70130;44.534;18.678;2023-12-29T05:26:30;99661.03;;;-0.37;100.00
80733;BME280;70130;44.534;18.678;2023-12-29T05:29:02;99651.22;;;-0.42;100.00
80733;BME280;70130;44.534;18.678;2023-12-29T05:31:31;99652.09;;;-0.36;100.00
80733;BME280;70130;44.534;18.678;2023-12-29T05:33:56;99651.22;;;-0.42;100.00
80733;BME280;70130;44.534;18.678;2023-12-29T05:36:25;99659.53;;;-0.33;100.00
80733;BME280;70130;44.534;18.678;2023-12-29T05:38:50;99655.53;;;-0.36;100.00
80733;BME280;70130;44.534;18.678;2023-12-29T05:41:19;99658.50;;;-0.32;100.00
80733;BME280;70130;44.534;18.678;2023-12-29T05:43:45;99658.28;;;-0.31;100.00
80733;BME280;70130;44.534;18.678;2023-12-29T05:49:54;99665.59;;;-0.33;100.00
80733;BME280;70130;44.534;18.678;2023-12-29T05:52:20;99674.00;;;-0.36;100.00
80733;BME280;70130;44.534;18.678;2023-12-29T05:54:49;99656.78;;;-0.55;100.00
80733;BME280;70130;44.534;18.678;2023-12-29T05:57:14;99650.31;;;-0.48;100.00
80733;BME280;70130;44.534;18.678;2023-12-29T05:59:40;99663.09;;;-0.39;100.00
80733;BME280;70130;44.534;18.678;2023-12-29T06:02:05;99654.06;;;-0.44;100.00
80733;BME280;70130;44.534;18.678;2023-12-29T06:04:31;99661.09;;;-0.49;100.00
80733;BME280;70130;44.534;18.678;2023-12-29T06:06:57;99667.16;;;-0.49;100.00
80733;BME280;70130;44.534;18.678;2023-12-29T06:09:22;99665.59;;;-0.50;100.00
80733;BME280;70130;44.534;18.678;2023-12-29T06:11:48;99652.41;;;-0.50;100.00
80733;BME280;70130;44.534;18.678;2023-12-29T06:14:14;99650.31;;;-0.48;100.00
80733;BME280;70130;44.534;18.678;2023-12-29T06:16:40;99663.34;;;-0.41;100.00
80733;BME280;70130;44.534;18.678;2023-12-29T06:19:06;99661.66;;;-0.47;100.00
80733;BME280;70130;44.534;18.678;2023-12-29T06:21:31;99647.06;;;-0.66;100.00
80733;BME280;70130;44.534;18.678;2023-12-29T06:23:57;99645.97;;;-0.54;100.00
80733;BME280;70130;44.534;18.678;2023-12-29T06:26:22;99647.44;;;-0.46;100.00
80733;BME280;70130;44.534;18.678;2023-12-29T06:28:48;99654.16;;;-0.38;100.00
80733;BME280;70130;44.534;18.678;2023-12-29T06:31:14;99662.66;;;-0.36;100.00
80733;BME280;70130;44.534;18.678;2023-12-29T06:33:43;99649.06;;;-0.45;100.00
80733;BME280;70130;44.534;18.678;2023-12-29T06:36:09;99657.78;;;-0.28;100.00
80733;BME280;70130;44.534;18.678;2023-12-29T06:38:35;99659.72;;;-0.23;100.00
80733;BME280;70130;44.534;18.678;2023-12-29T06:41:03;99653.91;;;-0.25;100.00
80733;BME280;70130;44.534;18.678;2023-12-29T06:43:29;99656.66;;;-0.32;100.00
80733;BME280;70130;44.534;18.678;2023-12-29T06:45:55;99654.69;;;-0.25;100.00
80733;BME280;70130;44.534;18.678;2023-12-29T06:48:21;99656.94;;;-0.17;100.00
80733;BME280;70130;44.534;18.678;2023-12-29T06:50:46;99655.09;;;-0.16;100.00
80733;BME280;70130;44.534;18.678;2023-12-29T06:53:12;99637.28;;;-0.26;100.00
80733;BME280;70130;44.534;18.678;2023-12-29T06:55:38;99646.84;;;-0.20;100.00
80733;BME280;70130;44.534;18.678;2023-12-29T06:58:07;99637.63;;;-0.34;100.00
80733;BME280;70130;44.534;18.678;2023-12-29T07:00:33;99644.69;;;-0.23;100.00
80733;BME280;70130;44.534;18.678;2023-12-29T07:03:00;99642.53;;;-0.26;100.00
80733;BME280;70130;44.534;18.678;2023-12-29T07:05:26;99659.81;;;-0.18;100.00
80733;BME280;70130;44.534;18.678;2023-12-29T07:07:51;99647.34;;;-0.23;100.00
80733;BME280;70130;44.534;18.678;2023-12-29T07:10:17;99647.09;;;-0.21;100.00
80733;BME280;70130;44.534;18.678;2023-12-29T07:12:43;99620.78;;;-0.33;100.00
80733;BME280;70130;44.534;18.678;2023-12-29T07:15:09;99655.09;;;-0.16;100.00
80733;BME280;70130;44.534;18.678;2023-12-29T07:17:34;99648.38;;;-0.24;100.00
80733;BME280;70130;44.534;18.678;2023-12-29T07:20:00;99646.84;;;-0.20;100.00
80733;BME280;70130;44.534;18.678;2023-12-29T07:22:26;99636.28;;;-0.20;100.00
80733;BME280;70130;44.534;18.678;2023-12-29T07:24:53;99634.09;;;-0.11;100.00
80733;BME280;70130;44.534;18.678;2023-12-29T07:27:18;99641.13;;;0.00;100.00
80733;BME280;70130;44.534;18.678;2023-12-29T07:29:44;99630.25;;;-0.04;100.00
80733;BME280;70130;44.534;18.678;2023-12-29T07:32:10;99630.16;;;-0.09;100.00
80733;BME280;70130;44.534;18.678;2023-12-29T07:34:35;99618.19;;;-0.16;100.00
80733;BME280;70130;44.534;18.678;2023-12-29T07:37:01;99611.59;;;-0.14;100.00
80733;BME280;70130;44.534;18.678;2023-12-29T07:39:26;99613.94;;;-0.01;100.00
80733;BME280;70130;44.534;18.678;2023-12-29T07:41:52;99615.31;;;0.02;100.00
80733;BME280;70130;44.534;18.678;2023-12-29T07:44:18;99618.25;;;0.06;100.00
80733;BME280;70130;44.534;18.678;2023-12-29T07:46:44;99607.47;;;0.07;100.00
80733;BME280;70130;44.534;18.678;2023-12-29T07:49:10;99594.28;;;0.07;100.00
80733;BME280;70130;44.534;18.678;2023-12-29T07:51:42;99605.78;;;0.18;100.00
80733;BME280;70130;44.534;18.678;2023-12-29T07:54:11;99613.84;;;0.28;100.00
80733;BME280;70130;44.534;18.678;2023-12-29T07:56:40;99619.44;;;0.31;100.00
80733;BME280;70130;44.534;18.678;2023-12-29T07:59:11;99624.66;;;0.43;100.00
80733;BME280;70130;44.534;18.678;2023-12-29T08:01:37;99619.38;;;0.43;100.00
80733;BME280;70130;44.534;18.678;2023-12-29T08:04:06;99608.00;;;0.42;100.00
80733;BME280;70130;44.534;18.678;2023-12-29T08:06:32;99622.16;;;0.53;100.00
80733;BME280;70130;44.534;18.678;2023-12-29T08:08:58;99614.84;;;0.60;100.00
80733;BME280;70130;44.534;18.678;2023-12-29T08:11:23;99620.25;;;0.70;100.00
80733;BME280;70130;44.534;18.678;2023-12-29T08:13:49;99618.78;;;0.79;100.00
80733;BME280;70130;44.534;18.678;2023-12-29T08:16:16;99617.34;;;0.89;100.00
80733;BME280;70130;44.534;18.678;2023-12-29T08:18:45;99613.16;;;0.93;100.00
80733;BME280;70130;44.534;18.678;2023-12-29T08:21:18;99628.41;;;1.07;100.00
80733;BME280;70130;44.534;18.678;2023-12-29T08:23:45;99630.38;;;1.17;100.00
80733;BME280;70130;44.534;18.678;2023-12-29T08:26:11;99621.94;;;1.20;100.00
80733;BME280;70130;44.534;18.678;2023-12-29T08:28:37;99616.94;;;1.23;100.00
80733;BME280;70130;44.534;18.678;2023-12-29T08:31:02;99621.31;;;1.35;100.00
80733;BME280;70130;44.534;18.678;2023-12-29T08:33:46;99611.31;;;1.37;100.00
80733;BME280;70130;44.534;18.678;2023-12-29T08:36:12;99619.06;;;1.48;100.00
80733;BME280;70130;44.534;18.678;2023-12-29T08:38:38;99622.94;;;1.62;100.00
80733;BME280;70130;44.534;18.678;2023-12-29T08:41:04;99618.00;;;1.71;100.00
80733;BME280;70130;44.534;18.678;2023-12-29T08:43:30;99622.59;;;1.81;100.00
80733;BME280;70130;44.534;18.678;2023-12-29T08:45:56;99619.75;;;1.87;100.00
80733;BME280;70130;44.534;18.678;2023-12-29T08:48:22;99627.06;;;2.07;100.00
80733;BME280;70130;44.534;18.678;2023-12-29T08:50:49;99612.50;;;2.09;100.00
80733;BME280;70130;44.534;18.678;2023-12-29T08:53:14;99624.50;;;2.22;100.00
80733;BME280;70130;44.534;18.678;2023-12-29T08:55:41;99608.16;;;2.30;100.00
80733;BME280;70130;44.534;18.678;2023-12-29T08:58:07;99630.59;;;2.59;100.00
80733;BME280;70130;44.534;18.678;2023-12-29T09:00:35;99623.47;;;2.65;100.00
80733;BME280;70130;44.534;18.678;2023-12-29T09:03:07;99620.13;;;2.85;100.00
80733;BME280;70130;44.534;18.678;2023-12-29T09:05:33;99630.88;;;3.10;100.00
80733;BME280;70130;44.534;18.678;2023-12-29T09:08:00;99628.00;;;3.27;100.00
80733;BME280;70130;44.534;18.678;2023-12-29T09:10:27;99631.75;;;3.46;100.00
80733;BME280;70130;44.534;18.678;2023-12-29T09:12:52;99606.84;;;3.52;100.00
80733;BME280;70130;44.534;18.678;2023-12-29T09:15:18;99627.84;;;3.69;100.00
80733;BME280;70130;44.534;18.678;2023-12-29T09:17:43;99618.31;;;3.78;100.00
80733;BME280;70130;44.534;18.678;2023-12-29T09:20:09;99614.06;;;3.87;100.00
80733;BME280;70130;44.534;18.678;2023-12-29T09:22:35;99621.78;;;4.04;100.00
80733;BME280;70130;44.534;18.678;2023-12-29T09:25:01;99614.34;;;4.01;100.00
80733;BME280;70130;44.534;18.678;2023-12-29T09:27:26;99616.72;;;4.12;100.00
80733;BME280;70130;44.534;18.678;2023-12-29T09:29:52;99609.28;;;4.19;100.00
80733;BME280;70130;44.534;18.678;2023-12-29T09:32:18;99594.94;;;4.20;100.00
80733;BME280;70130;44.534;18.678;2023-12-29T09:34:44;99590.69;;;4.24;100.00
80733;BME280;70130;44.534;18.678;2023-12-29T09:37:10;99587.25;;;4.29;100.00
80733;BME280;70130;44.534;18.678;2023-12-29T09:39:36;99560.16;;;4.22;100.00
80733;BME280;70130;44.534;18.678;2023-12-29T09:42:03;99597.56;;;4.46;100.00
80733;BME280;70130;44.534;18.678;2023-12-29T09:44:31;99591.19;;;4.47;100.00
80733;BME280;70130;44.534;18.678;2023-12-29T09:47:01;99593.84;;;4.52;100.00
80733;BME280;70130;44.534;18.678;2023-12-29T09:49:37;99586.66;;;4.62;100.00
80733;BME280;70130;44.534;18.678;2023-12-29T09:52:06;99571.50;;;4.63;100.00
80733;BME280;70130;44.534;18.678;2023-12-29T09:54:32;99579.44;;;4.78;100.00
80733;BME280;70130;44.534;18.678;2023-12-29T09:56:59;99563.50;;;4.73;100.00
80733;BME280;70130;44.534;18.678;2023-12-29T09:59:26;99547.50;;;4.83;100.00
80733;BME280;70130;44.534;18.678;2023-12-29T10:01:52;99554.28;;;5.04;100.00
80733;BME280;70130;44.534;18.678;2023-12-29T10:04:19;99568.31;;;5.25;100.00
80733;BME280;70130;44.534;18.678;2023-12-29T10:06:47;99548.81;;;5.35;100.00
80733;BME280;70130;44.534;18.678;2023-12-29T10:09:15;99550.94;;;5.38;100.00
80733;BME280;70130;44.534;18.678;2023-12-29T10:11:46;99558.56;;;5.49;100.00
80733;BME280;70130;44.534;18.678;2023-12-29T10:14:34;99545.44;;;5.63;98.98
80733;BME280;70130;44.534;18.678;2023-12-29T10:17:19;99536.91;;;5.66;98.62
80733;BME280;70130;44.534;18.678;2023-12-29T10:20:20;99540.97;;;5.92;98.77
80733;BME280;70130;44.534;18.678;2023-12-29T10:22:57;99536.50;;;6.17;97.98
80733;BME280;70130;44.534;18.678;2023-12-29T10:25:27;99534.66;;;6.12;97.18
80733;BME280;70130;44.534;18.678;2023-12-29T10:27:53;99517.19;;;6.01;97.13
80733;BME280;70130;44.534;18.678;2023-12-29T10:30:19;99524.78;;;6.13;97.45
80733;BME280;70130;44.534;18.678;2023-12-29T10:32:50;99487.16;;;5.95;96.76
80733;BME280;70130;44.534;18.678;2023-12-29T10:35:16;99524.78;;;6.13;96.53
80733;BME280;70130;44.534;18.678;2023-12-29T10:37:42;99509.91;;;6.12;96.26
80733;BME280;70130;44.534;18.678;2023-12-29T10:40:08;99497.13;;;6.08;96.68
80733;BME280;70130;44.534;18.678;2023-12-29T10:42:33;99501.25;;;6.25;96.30
80733;BME280;70130;44.534;18.678;2023-12-29T10:45:07;99496.66;;;6.30;97.01
80733;BME280;70130;44.534;18.678;2023-12-29T10:47:33;99504.22;;;6.42;97.26
80733;BME280;70130;44.534;18.678;2023-12-29T10:50:02;99494.84;;;6.49;97.66
80733;BME280;70130;44.534;18.678;2023-12-29T10:52:29;99506.34;;;6.69;97.09
80733;BME280;70130;44.534;18.678;2023-12-29T10:55:08;99495.09;;;6.48;95.85
80733;BME280;70130;44.534;18.678;2023-12-29T10:57:35;99477.50;;;6.47;95.52
80733;BME280;70130;44.534;18.678;2023-12-29T11:00:01;99473.78;;;6.48;94.96
80733;BME280;70130;44.534;18.678;2023-12-29T11:02:27;99485.81;;;6.45;95.18
80733;BME280;70130;44.534;18.678;2023-12-29T11:05:07;99469.47;;;6.52;94.71
80733;BME280;70130;44.534;18.678;2023-12-29T11:07:38;99449.16;;;6.32;95.47
80733;BME280;70130;44.534;18.678;2023-12-29T11:10:05;99455.28;;;6.33;95.90
80733;BME280;70130;44.534;18.678;2023-12-29T11:12:32;99444.69;;;6.28;95.88
80733;BME280;70130;44.534;18.678;2023-12-29T11:15:01;99454.75;;;6.36;95.66
80733;BME280;70130;44.534;18.678;2023-12-29T11:17:29;99466.19;;;6.36;95.92
80733;BME280;70130;44.534;18.678;2023-12-29T11:19:55;99466.31;;;6.26;96.35
80733;BME280;70130;44.534;18.678;2023-12-29T11:22:23;99454.16;;;6.39;96.26
80733;BME280;70130;44.534;18.678;2023-12-29T11:24:49;99457.50;;;6.49;96.13
80733;BME280;70130;44.534;18.678;2023-12-29T11:27:16;99429.97;;;6.35;96.26
80733;BME280;70130;44.534;18.678;2023-12-29T11:29:42;99432.13;;;6.52;96.16
80733;BME280;70130;44.534;18.678;2023-12-29T11:32:14;99442.97;;;6.61;95.78
80733;BME280;70130;44.534;18.678;2023-12-29T11:34:52;99441.72;;;6.53;94.97
80733;BME280;70130;44.534;18.678;2023-12-29T11:37:35;99447.28;;;6.57;94.81
80733;BME280;70130;44.534;18.678;2023-12-29T11:40:20;99436.16;;;6.31;95.99
80733;BME280;70130;44.534;18.678;2023-12-29T11:42:49;99441.75;;;6.29;96.01
80733;BME280;70130;44.534;18.678;2023-12-29T11:45:24;99441.00;;;6.24;95.86
80733;BME280;70130;44.534;18.678;2023-12-29T11:47:51;99438.25;;;6.10;96.47
80733;BME280;70130;44.534;18.678;2023-12-29T11:50:35;99436.13;;;6.07;97.42
80733;BME280;70130;44.534;18.678;2023-12-29T11:53:02;99405.16;;;5.87;97.11
80733;BME280;70130;44.534;18.678;2023-12-29T11:55:34;99432.34;;;6.13;97.40
80733;BME280;70130;44.534;18.678;2023-12-29T11:58:01;99422.81;;;6.07;97.46
80733;BME280;70130;44.534;18.678;2023-12-29T12:00:42;99432.16;;;6.28;97.75
80733;BME280;70130;44.534;18.678;2023-12-29T12:03:26;99429.00;;;6.26;97.59
80733;BME280;70130;44.534;18.678;2023-12-29T12:05:53;99432.63;;;6.35;97.09
80733;BME280;70130;44.534;18.678;2023-12-29T12:08:31;99433.41;;;6.36;97.60
80733;BME280;70130;44.534;18.678;2023-12-29T12:13:56;99419.72;;;6.42;97.81
80733;BME280;70130;44.534;18.678;2023-12-29T12:16:47;99423.13;;;6.48;98.17
80733;BME280;70130;44.534;18.678;2023-12-29T12:19:14;99413.41;;;6.57;97.01
80733;BME280;70130;44.534;18.678;2023-12-29T12:21:45;99412.41;;;6.53;96.98
80733;BME280;70130;44.534;18.678;2023-12-29T12:24:12;99416.94;;;6.53;97.02
80733;BME280;70130;44.534;18.678;2023-12-29T12:26:40;99417.72;;;6.53;97.15
80733;BME280;70130;44.534;18.678;2023-12-29T12:29:06;99392.00;;;6.43;97.10
80733;BME280;70130;44.534;18.678;2023-12-29T12:31:32;99406.13;;;6.63;96.71
80733;BME280;70130;44.534;18.678;2023-12-29T12:33:59;99405.41;;;6.57;97.09
80733;BME280;70130;44.534;18.678;2023-12-29T12:36:28;99405.56;;;6.66;97.12
80733;BME280;70130;44.534;18.678;2023-12-29T12:38:55;99402.03;;;6.70;97.26
80733;BME280;70130;44.534;18.678;2023-12-29T12:41:22;99363.41;;;6.49;96.96
80733;BME280;70130;44.534;18.678;2023-12-29T12:44:07;99397.72;;;6.74;96.88
80733;BME280;70130;44.534;18.678;2023-12-29T12:46:41;99389.06;;;6.82;96.72
80733;BME280;70130;44.534;18.678;2023-12-29T12:49:09;99386.91;;;6.84;96.57
80733;BME280;70130;44.534;18.678;2023-12-29T12:51:35;99375.16;;;6.85;96.63
80733;BME280;70130;44.534;18.678;2023-12-29T12:54:01;99396.03;;;6.97;96.44
80733;BME280;70130;44.534;18.678;2023-12-29T12:56:27;99382.22;;;6.95;96.54
80733;BME280;70130;44.534;18.678;2023-12-29T12:58:57;99387.97;;;7.02;96.49
80733;BME280;70130;44.534;18.678;2023-12-29T13:01:25;99366.78;;;6.92;96.47
80733;BME280;70130;44.534;18.678;2023-12-29T13:03:53;99382.06;;;7.05;96.04
80733;BME280;70130;44.534;18.678;2023-12-29T13:06:20;99386.44;;;7.15;96.24
80733;BME280;70130;44.534;18.678;2023-12-29T13:08:50;99371.44;;;7.19;95.96
80733;BME280;70130;44.534;18.678;2023-12-29T13:11:21;99389.44;;;7.27;96.09